Arcata Airport Arcata,Eureka US
ICAO: KACV
IATA: ACV
Category: Medium
Scheduled Services: Yes

Elevation: 221 ft
TransAlt. 18000 ft.

Airport Communications:
ASOS:118.525
SEATTLE CNTR:124.85
COAST GUARD AIR OPS:34.5
OAKLAND RDO:122.6
CTAF/UNICOM:123

KACV Zoom In..

If you have problems with the map follow the link
https://www.worldairports.se/pages/airport.php?
ICAO=KACV

Runways:

(A) RW 01 length 4501 ft width 150 ft
---- / hdg 13

(B) RW 14 length 6046 ft width 150 ft
---- / hdg 136

(C) RW 19 length 4501 ft width 150 ft
---- / hdg 193

(D) RW 32 length 6046 ft width 150 ft
ILS 109.50 / hdg 316

Location; KACV
Day. 22 / Time. 12.00 Zulu
* Altimeter: 29.98
* Temperature: 08° c. 46.4°f.
* Wind from: 000° Speed 00 kn.
Dewpoint: 08° c.
Visibility: 1 Statute Miles.
Conditions: Mist.

KACV 221200Z AUTO 00000KT 1SM R32/4000V5000FT BR VV002 08/08 A2998 RMK AO2 T00830083


Wind - Calm.

 
 
jpsmedia.com for Web Design worldairports.se 2018   terms of use